createdAt,value
2023-07-04T00:01:26.358Z,20.21
2023-07-04T00:04:31.198Z,20.15
2023-07-04T00:07:33.950Z,20.16
2023-07-04T00:10:38.957Z,20.19
2023-07-04T00:13:42.343Z,20.22
2023-07-04T00:16:46.051Z,20.24
2023-07-04T00:19:49.328Z,20.33
2023-07-04T00:22:52.106Z,20.37
2023-07-04T00:25:56.298Z,20.39
2023-07-04T00:28:59.247Z,20.46
2023-07-04T00:32:02.960Z,20.49
2023-07-04T00:35:07.354Z,20.48
2023-07-04T00:38:10.906Z,20.53
2023-07-04T00:41:22.260Z,20.59
2023-07-04T00:44:31.840Z,20.61
2023-07-04T00:47:44.663Z,20.68
2023-07-04T00:50:51.266Z,20.65
2023-07-04T00:53:56.238Z,20.64
2023-07-04T00:57:04.216Z,20.64
2023-07-04T01:00:24.570Z,20.65
2023-07-04T01:03:27.380Z,20.63
2023-07-04T01:06:40.317Z,20.63
2023-07-04T01:09:51.324Z,20.62
2023-07-04T01:12:54.088Z,20.65
2023-07-04T01:15:59.147Z,20.66
2023-07-04T01:19:03.332Z,20.71
2023-07-04T01:22:16.773Z,20.82
2023-07-04T01:25:25.337Z,20.87
2023-07-04T01:28:30.883Z,20.82
2023-07-04T01:31:37.053Z,20.79
2023-07-04T01:34:39.860Z,20.79
2023-07-04T01:37:43.002Z,20.77
2023-07-04T01:40:48.156Z,20.77
2023-07-04T01:43:57.946Z,20.75
2023-07-04T01:47:01.169Z,20.75
2023-07-04T01:50:06.162Z,20.70
2023-07-04T01:53:09.213Z,20.71
2023-07-04T01:56:12.101Z,20.69
2023-07-04T01:59:15.608Z,20.66
2023-07-04T02:02:19.334Z,20.60
2023-07-04T02:05:22.276Z,20.59
2023-07-04T02:08:25.217Z,20.53
2023-07-04T02:11:28.328Z,20.48
2023-07-04T02:14:31.415Z,20.54
2023-07-04T02:17:34.705Z,20.52
2023-07-04T02:20:37.499Z,20.54
2023-07-04T02:23:40.225Z,20.71
2023-07-04T02:26:44.516Z,20.72
2023-07-04T02:29:50.426Z,20.76
2023-07-04T02:32:53.190Z,20.75
2023-07-04T02:35:56.977Z,20.82
2023-07-04T02:38:59.973Z,20.85
2023-07-04T02:42:02.701Z,20.86
2023-07-04T02:45:08.064Z,20.84
2023-07-04T02:48:11.835Z,20.84
2023-07-04T02:51:14.747Z,20.91
2023-07-04T02:54:17.570Z,20.96
2023-07-04T02:57:20.661Z,20.95
2023-07-04T03:00:24.033Z,20.95
2023-07-04T03:03:29.281Z,20.99
2023-07-04T03:06:36.414Z,20.93
2023-07-04T03:09:39.560Z,20.86
2023-07-04T03:12:43.016Z,20.83
2023-07-04T03:15:45.879Z,20.87
2023-07-04T03:18:48.690Z,20.77
2023-07-04T03:24:28.805Z,20.70
2023-07-04T03:27:32.492Z,20.67
2023-07-04T03:30:36.020Z,20.67
2023-07-04T03:33:44.036Z,20.65
2023-07-04T03:36:46.907Z,20.62
2023-07-04T03:39:49.631Z,20.53
2023-07-04T03:42:52.534Z,20.48
2023-07-04T03:45:55.473Z,20.50
2023-07-04T03:48:58.254Z,20.55
2023-07-04T03:52:01.125Z,20.45
2023-07-04T03:55:04.554Z,20.43
2023-07-04T03:58:07.296Z,20.43
2023-07-04T04:01:10.031Z,20.38
2023-07-04T04:04:13.030Z,20.41
2023-07-04T04:07:16.334Z,20.41
2023-07-04T04:10:19.816Z,20.40
2023-07-04T04:13:22.558Z,20.54
2023-07-04T04:16:25.555Z,20.53
2023-07-04T04:19:28.808Z,20.62
2023-07-04T04:22:31.912Z,20.65
2023-07-04T04:25:39.709Z,20.78
2023-07-04T04:28:42.564Z,20.84
2023-07-04T04:31:48.574Z,21.04
2023-07-04T04:34:51.296Z,20.92
2023-07-04T04:37:54.038Z,21.18
2023-07-04T04:41:06.210Z,21.35
2023-07-04T04:44:10.194Z,21.51
2023-07-04T04:47:13.884Z,21.52
2023-07-04T04:50:17.437Z,21.33
2023-07-04T04:53:20.274Z,21.27
2023-07-04T04:56:23.010Z,21.17
2023-07-04T04:59:25.701Z,21.16
2023-07-04T05:02:31.664Z,21.10
2023-07-04T05:05:34.470Z,20.95
2023-07-04T05:08:37.646Z,21.01
2023-07-04T05:11:40.460Z,20.93
2023-07-04T05:14:43.279Z,21.02
2023-07-04T05:17:46.055Z,21.11
2023-07-04T05:20:48.795Z,21.18
2023-07-04T05:23:53.902Z,21.16
2023-07-04T05:26:56.770Z,21.29
2023-07-04T05:29:59.498Z,21.33
2023-07-04T05:33:02.264Z,21.64
2023-07-04T05:36:12.428Z,21.45
2023-07-04T05:39:15.106Z,21.39
2023-07-04T05:42:17.886Z,21.56
2023-07-04T05:45:20.561Z,21.65
2023-07-04T05:48:23.492Z,21.76
2023-07-04T05:51:27.587Z,21.78
2023-07-04T05:54:30.325Z,21.93
2023-07-04T05:57:33.210Z,21.87
2023-07-04T06:00:36.447Z,21.89
2023-07-04T06:03:40.455Z,21.62
2023-07-04T06:06:51.814Z,21.71
2023-07-04T06:09:54.571Z,21.76
2023-07-04T06:12:57.444Z,21.75
2023-07-04T06:16:02.891Z,21.71
2023-07-04T06:19:05.747Z,21.60
2023-07-04T06:22:08.615Z,21.62
2023-07-04T06:25:11.535Z,21.54
2023-07-04T06:28:14.243Z,21.52
2023-07-04T06:31:18.728Z,21.57
2023-07-04T06:34:21.550Z,21.49
2023-07-04T06:37:24.390Z,21.37
2023-07-04T06:40:27.107Z,21.61
2023-07-04T06:43:32.168Z,22.02
2023-07-04T06:46:36.127Z,22.16
2023-07-04T06:49:39.069Z,22.53
2023-07-04T06:52:41.811Z,22.91
2023-07-04T06:55:44.685Z,23.22
2023-07-04T06:58:54.220Z,24.32
2023-07-04T07:01:57.310Z,24.30
2023-07-04T07:05:00.680Z,25.11
2023-07-04T07:08:03.623Z,24.83
2023-07-04T07:11:08.925Z,25.90
2023-07-04T07:14:11.734Z,25.68
2023-07-04T07:17:14.524Z,25.40
2023-07-04T07:20:17.470Z,25.60
2023-07-04T07:23:20.287Z,25.03
2023-07-04T07:26:24.029Z,24.48
2023-07-04T07:29:27.578Z,24.87
2023-07-04T07:32:30.409Z,24.67
2023-07-04T07:35:33.267Z,24.77
2023-07-04T07:38:36.023Z,24.98
2023-07-04T07:41:42.481Z,25.19
2023-07-04T07:44:45.287Z,24.72
2023-07-04T07:47:51.821Z,24.05
2023-07-04T07:50:55.287Z,24.86
2023-07-04T07:54:01.380Z,25.67
2023-07-04T07:57:04.364Z,26.33
2023-07-04T08:00:08.677Z,26.65
2023-07-04T08:03:15.592Z,26.77
2023-07-04T08:06:30.807Z,26.53
2023-07-04T08:09:33.689Z,26.25
2023-07-04T08:12:36.798Z,26.26
2023-07-04T08:15:39.623Z,26.33
2023-07-04T08:18:43.328Z,26.29
2023-07-04T08:21:47.983Z,26.06
2023-07-04T08:24:50.713Z,25.81
2023-07-04T08:27:54.358Z,26.11
2023-07-04T08:31:05.827Z,26.19
2023-07-04T08:34:12.272Z,26.29
2023-07-04T08:37:16.015Z,26.07
2023-07-04T08:40:19.628Z,26.02
2023-07-04T08:43:49.938Z,25.67
2023-07-04T08:46:56.478Z,25.59
2023-07-04T08:50:19.491Z,25.27
2023-07-04T08:53:25.966Z,24.81
2023-07-04T08:56:34.802Z,24.41
2023-07-04T08:59:44.407Z,24.24
2023-07-04T09:03:09.926Z,24.05
2023-07-04T09:06:29.333Z,23.40
2023-07-04T09:09:39.872Z,22.84
2023-07-04T09:12:44.263Z,22.74
2023-07-04T09:15:48.810Z,22.45
2023-07-04T09:19:06.804Z,22.58
2023-07-04T09:22:10.363Z,22.36
2023-07-04T09:25:13.287Z,22.21
2023-07-04T09:28:16.438Z,22.16
2023-07-04T09:31:31.045Z,22.00
2023-07-04T09:34:38.004Z,22.10
2023-07-04T09:37:59.117Z,22.11
2023-07-04T09:41:03.438Z,22.19
2023-07-04T09:44:17.703Z,22.09
2023-07-04T09:47:29.708Z,22.01
2023-07-04T09:50:37.707Z,21.64
2023-07-04T09:53:40.527Z,21.73
2023-07-04T09:56:44.268Z,21.45
2023-07-04T09:59:47.358Z,21.40
2023-07-04T10:02:54.126Z,21.06
2023-07-04T10:05:57.222Z,20.85
2023-07-04T10:09:03.390Z,20.96
2023-07-04T10:12:14.302Z,20.84
2023-07-04T10:15:36.059Z,20.80
2023-07-04T10:18:40.412Z,20.77
2023-07-04T10:21:44.209Z,20.62
2023-07-04T10:24:47.097Z,20.63
2023-07-04T10:27:57.082Z,20.61
2023-07-04T10:31:12.820Z,20.47
2023-07-04T10:34:20.009Z,20.22
2023-07-04T10:37:25.891Z,20.22
2023-07-04T10:41:03.493Z,20.13
2023-07-04T10:44:35.209Z,20.14
2023-07-04T10:47:40.646Z,20.22
2023-07-04T10:51:02.636Z,20.22
2023-07-04T10:54:09.290Z,20.15
2023-07-04T10:57:47.402Z,20.27
2023-07-04T11:01:14.134Z,20.33
2023-07-04T11:04:33.019Z,20.47
2023-07-04T11:07:40.877Z,20.46
2023-07-04T11:10:46.493Z,20.44
2023-07-04T11:13:52.560Z,20.63
2023-07-04T11:16:59.186Z,20.69
2023-07-04T11:20:15.190Z,20.68
2023-07-04T11:23:20.704Z,20.62
2023-07-04T11:26:47.605Z,20.73
2023-07-04T11:30:04.191Z,20.76
2023-07-04T11:33:08.986Z,21.02
2023-07-04T11:36:30.496Z,21.10
2023-07-04T11:39:37.768Z,21.01
2023-07-04T11:42:48.018Z,21.04
2023-07-04T11:45:51.024Z,21.49
2023-07-04T11:48:57.333Z,21.90
2023-07-04T11:52:05.527Z,22.11
2023-07-04T11:55:16.384Z,22.00
2023-07-04T11:58:20.223Z,21.91
2023-07-04T12:01:23.093Z,21.78
2023-07-04T12:04:47.815Z,21.71
2023-07-04T12:07:52.884Z,21.78
2023-07-04T12:11:05.753Z,21.68
2023-07-04T12:14:11.240Z,21.44
2023-07-04T12:17:16.020Z,21.62
2023-07-04T12:20:22.166Z,21.56
2023-07-04T12:23:26.054Z,21.60
2023-07-04T12:26:29.883Z,21.39
2023-07-04T12:32:41.286Z,21.47
2023-07-04T12:35:47.942Z,21.36
2023-07-04T12:38:54.557Z,21.51
2023-07-04T12:41:57.506Z,21.67
2023-07-04T12:45:00.270Z,21.59
2023-07-04T12:51:15.388Z,21.53
2023-07-04T12:54:18.543Z,21.57
2023-07-04T12:57:26.407Z,21.37
2023-07-04T13:00:52.718Z,21.27
2023-07-04T13:04:00.734Z,21.23
2023-07-04T13:07:03.860Z,21.21
2023-07-04T13:10:07.130Z,21.29
2023-07-04T13:13:39.015Z,21.26
2023-07-04T13:16:41.953Z,21.20
2023-07-04T13:19:45.305Z,21.18
2023-07-04T13:24:57.823Z,21.25
2023-07-04T13:26:20.291Z,21.42
2023-07-04T13:35:47.041Z,21.57
2023-07-04T13:39:49.976Z,21.63
2023-07-04T13:42:18.275Z,21.95
2023-07-04T13:45:21.357Z,21.83
2023-07-04T13:48:26.755Z,22.13
2023-07-04T13:51:30.155Z,22.27
2023-07-04T13:54:32.955Z,22.29
2023-07-04T13:57:36.484Z,22.44
2023-07-04T14:03:46.482Z,22.61
2023-07-04T14:07:10.143Z,22.25
2023-07-04T14:10:27.794Z,22.41
2023-07-04T14:13:36.814Z,22.55
2023-07-04T14:17:12.242Z,22.45
2023-07-04T14:20:04.232Z,22.35
2023-07-04T14:23:07.156Z,22.36
2023-07-04T14:26:22.203Z,22.55
2023-07-04T14:29:25.769Z,22.45
2023-07-04T14:32:28.789Z,22.52
2023-07-04T14:35:31.618Z,22.45
2023-07-04T14:38:35.884Z,22.50
2023-07-04T14:44:46.163Z,22.55
2023-07-04T14:47:49.086Z,22.71
2023-07-04T14:51:09.549Z,22.78
2023-07-04T14:54:15.827Z,22.73
2023-07-04T14:57:19.114Z,22.85
2023-07-04T15:00:24.239Z,22.88
2023-07-04T15:03:31.606Z,22.63
2023-07-04T15:06:34.514Z,22.75
2023-07-04T15:09:38.750Z,23.08
2023-07-04T15:12:41.473Z,23.22
2023-07-04T15:15:44.367Z,23.20
2023-07-04T15:18:47.276Z,23.26
2023-07-04T15:21:50.360Z,23.25
2023-07-04T15:24:53.035Z,23.31
2023-07-04T15:27:55.744Z,23.63
2023-07-04T15:30:58.644Z,23.63
2023-07-04T15:34:01.502Z,23.83
2023-07-04T15:37:08.563Z,24.13
2023-07-04T15:40:12.169Z,24.55
2023-07-04T15:43:14.930Z,24.55
2023-07-04T15:46:18.342Z,24.48
2023-07-04T15:49:21.082Z,24.80
2023-07-04T15:52:26.152Z,24.85
2023-07-04T15:55:31.695Z,25.03
2023-07-04T15:58:34.542Z,24.97
2023-07-04T16:01:37.378Z,24.57
2023-07-04T16:04:40.178Z,24.63
2023-07-04T16:07:42.937Z,24.18
2023-07-04T16:10:48.386Z,24.11
2023-07-04T16:13:54.254Z,24.18
2023-07-04T16:16:57.018Z,23.85
2023-07-04T16:19:59.923Z,23.85
2023-07-04T16:23:02.720Z,23.75
2023-07-04T16:26:05.489Z,23.61
2023-07-04T16:29:08.315Z,23.63
2023-07-04T16:32:11.190Z,23.51
2023-07-04T16:35:13.930Z,23.48
2023-07-04T16:38:16.781Z,23.51
2023-07-04T16:41:19.669Z,23.36
2023-07-04T16:44:24.489Z,23.43
2023-07-04T16:47:28.458Z,23.36
2023-07-04T16:50:33.155Z,23.33
2023-07-04T16:53:39.467Z,23.37
2023-07-04T16:56:42.218Z,23.19
2023-07-04T16:59:45.416Z,23.31
2023-07-04T17:02:48.234Z,23.26
2023-07-04T17:05:51.370Z,23.19
2023-07-04T17:08:54.696Z,23.15
2023-07-04T17:11:59.701Z,23.10
2023-07-04T17:15:02.466Z,23.20
2023-07-04T17:18:05.281Z,23.04
2023-07-04T17:21:09.288Z,23.32
2023-07-04T17:24:12.194Z,23.27
2023-07-04T17:27:14.956Z,23.19
2023-07-04T17:30:18.701Z,23.21
2023-07-04T17:33:21.540Z,23.26
2023-07-04T17:36:24.889Z,23.13
2023-07-04T17:39:27.601Z,23.20
2023-07-04T17:42:30.852Z,23.05
2023-07-04T17:45:33.630Z,22.92
2023-07-04T17:48:36.665Z,22.68
2023-07-04T17:51:39.519Z,22.52
2023-07-04T17:54:42.831Z,22.47
2023-07-04T17:57:45.603Z,22.26
2023-07-04T18:00:48.288Z,22.20
2023-07-04T18:03:52.655Z,22.11
2023-07-04T18:06:55.656Z,22.04
2023-07-04T18:09:58.586Z,21.87
2023-07-04T18:13:01.383Z,21.77
2023-07-04T18:16:04.731Z,21.71
2023-07-04T18:19:08.065Z,21.65
2023-07-04T18:22:11.849Z,21.59
2023-07-04T18:25:14.805Z,21.51
2023-07-04T18:28:20.734Z,21.45
2023-07-04T18:31:26.277Z,21.35
2023-07-04T18:34:29.468Z,21.31
2023-07-04T18:37:32.191Z,21.23
2023-07-04T18:40:40.786Z,21.19
2023-07-04T18:43:44.423Z,21.04
2023-07-04T18:46:47.902Z,20.97
2023-07-04T18:49:51.470Z,20.96
2023-07-04T18:52:54.481Z,20.85
2023-07-04T18:55:59.101Z,20.64
2023-07-04T18:59:01.905Z,20.57
2023-07-04T19:02:04.940Z,20.51
2023-07-04T19:05:08.250Z,20.41
2023-07-04T19:08:11.286Z,20.40
2023-07-04T19:11:16.079Z,20.28
2023-07-04T19:14:21.230Z,20.22
2023-07-04T19:17:24.223Z,20.17
2023-07-04T19:20:27.046Z,20.20
2023-07-04T19:23:31.015Z,20.20
2023-07-04T19:26:36.183Z,20.19
2023-07-04T19:29:40.577Z,20.22
2023-07-04T19:32:43.299Z,20.28
2023-07-04T19:35:46.271Z,20.27
2023-07-04T19:38:49.943Z,20.30
2023-07-04T19:41:53.012Z,20.34
2023-07-04T19:44:55.903Z,20.37
2023-07-04T19:47:59.952Z,20.40
2023-07-04T19:51:08.717Z,20.49
2023-07-04T19:54:11.593Z,20.54
2023-07-04T19:57:14.484Z,20.55
2023-07-04T20:00:17.393Z,20.57
2023-07-04T20:03:20.580Z,20.66
2023-07-04T20:06:24.208Z,20.68
2023-07-04T20:09:27.057Z,20.69
2023-07-04T20:12:30.030Z,20.65
2023-07-04T20:15:36.173Z,20.67
2023-07-04T20:18:39.221Z,20.64
2023-07-04T20:21:42.333Z,20.58
2023-07-04T20:24:45.266Z,20.56
2023-07-04T20:27:48.192Z,20.54
2023-07-04T20:30:56.763Z,20.59
2023-07-04T20:34:00.513Z,20.55
2023-07-04T20:37:05.465Z,20.47
2023-07-04T20:40:10.205Z,20.34
2023-07-04T20:43:14.841Z,20.33
2023-07-04T20:46:17.653Z,20.34
2023-07-04T20:49:24.399Z,20.40
2023-07-04T20:52:28.391Z,20.46
2023-07-04T20:55:31.241Z,20.48
2023-07-04T20:58:34.097Z,20.47
2023-07-04T21:01:36.890Z,20.49
2023-07-04T21:04:39.768Z,20.50
2023-07-04T21:07:47.820Z,20.46
2023-07-04T21:10:55.416Z,20.38
2023-07-04T21:13:58.190Z,20.31
2023-07-04T21:17:00.943Z,20.19
2023-07-04T21:20:04.751Z,20.10
2023-07-04T21:23:07.579Z,20.06
2023-07-04T21:26:10.659Z,20.01
2023-07-04T21:29:18.579Z,19.93
2023-07-04T21:32:21.369Z,19.84
2023-07-04T21:35:24.183Z,19.83
2023-07-04T21:38:27.257Z,19.80
2023-07-04T21:41:30.101Z,19.73
2023-07-04T21:44:32.783Z,19.68
2023-07-04T21:47:36.085Z,19.65
2023-07-04T21:50:40.288Z,19.61
2023-07-04T21:53:43.158Z,19.56
2023-07-04T21:56:46.035Z,19.47
2023-07-04T21:59:48.762Z,19.47
2023-07-04T22:02:51.550Z,19.43
2023-07-04T22:06:11.005Z,19.34
2023-07-04T22:09:18.389Z,19.28
2023-07-04T22:12:21.185Z,19.13
2023-07-04T22:15:23.968Z,18.96
2023-07-04T22:18:27.023Z,18.84
2023-07-04T22:21:29.783Z,18.76
2023-07-04T22:24:32.615Z,18.71
2023-07-04T22:27:35.329Z,18.62
2023-07-04T22:30:38.084Z,18.58
2023-07-04T22:33:58.272Z,18.52
2023-07-04T22:37:01.118Z,18.47
2023-07-04T22:40:04.357Z,18.44
2023-07-04T22:43:07.130Z,18.41
2023-07-04T22:46:09.841Z,18.37
2023-07-04T22:49:12.544Z,18.35
2023-07-04T22:52:15.314Z,18.38
2023-07-04T22:55:18.129Z,18.40
2023-07-04T22:58:20.826Z,18.41
2023-07-04T23:01:26.117Z,18.43
2023-07-04T23:04:28.896Z,18.40
2023-07-04T23:07:32.422Z,18.33
2023-07-04T23:10:35.441Z,18.32
2023-07-04T23:13:38.545Z,18.26
2023-07-04T23:16:41.288Z,18.19
2023-07-04T23:19:44.030Z,18.15
2023-07-04T23:22:46.808Z,18.11
2023-07-04T23:25:49.639Z,18.06
2023-07-04T23:28:53.176Z,18.05
2023-07-04T23:31:55.984Z,18.05
2023-07-04T23:34:59.343Z,18.05
2023-07-04T23:38:04.201Z,18.08
2023-07-04T23:41:07.493Z,18.05
2023-07-04T23:44:10.182Z,18.01
2023-07-04T23:47:12.960Z,18.01
2023-07-04T23:50:15.752Z,17.93
2023-07-04T23:53:19.036Z,17.94
2023-07-04T23:56:22.749Z,17.97
2023-07-04T23:59:25.679Z,18.00
